Time;durP1;ratioP1;P1;durP2;ratioP2;P2;SDS_P1;SDS_P2;PMS_P1;PMS_P2;Temp;Humidity;BMP_temperature;BMP_pressure;BME280_temperature;BME280_humidity;BME280_pressure;Samples;Min_cycle;Max_cycle;Signal;HPM_P1;HPM_P2
2024/01/07 00:00:51;;;;;;;27.05;13.55;;;3.90;99.90;;;;;;5012648;28;20121;-52
2024/01/07 00:03:18;;;;;;;22.77;12.85;;;3.90;99.90;;;;;;5020855;28;20099;-52
2024/01/07 00:05:46;;;;;;;22.70;13.57;;;3.90;99.90;;;;;;5014044;28;20387;-50
2024/01/07 00:08:14;;;;;;;19.27;13.80;;;3.90;99.90;;;;;;5019051;28;20073;-54
2024/01/07 00:10:40;;;;;;;21.73;13.27;;;3.80;99.90;;;;;;5015012;28;20554;-52
2024/01/07 00:13:07;;;;;;;23.38;13.15;;;3.90;99.90;;;;;;5014275;28;20038;-51
2024/01/07 00:15:34;;;;;;;22.83;13.40;;;3.90;99.90;;;;;;5018138;28;20238;-50
2024/01/07 00:18:02;;;;;;;23.50;13.32;;;3.90;99.90;;;;;;5012132;28;20099;-53
2024/01/07 00:20:30;;;;;;;22.50;13.75;;;3.90;99.90;;;;;;5016179;28;20044;-53
2024/01/07 00:22:56;;;;;;;24.98;14.35;;;3.90;99.90;;;;;;5016229;28;20133;-55
2024/01/07 00:25:24;;;;;;;23.45;12.90;;;3.90;99.90;;;;;;5013827;28;20503;-54
2024/01/07 00:27:51;;;;;;;23.38;13.70;;;3.90;99.90;;;;;;5018213;28;20046;-52
2024/01/07 00:30:19;;;;;;;23.15;13.52;;;3.90;99.90;;;;;;5012837;28;20517;-51
2024/01/07 00:32:46;;;;;;;23.35;13.57;;;3.90;99.90;;;;;;5014557;28;20493;-57
2024/01/07 00:35:13;;;;;;;22.00;12.90;;;3.90;99.90;;;;;;5016296;28;20107;-48
2024/01/07 00:37:40;;;;;;;23.63;14.23;;;3.80;99.90;;;;;;5017271;28;20042;-54
2024/01/07 00:40:07;;;;;;;22.60;12.90;;;3.80;99.90;;;;;;5012482;28;20616;-55
2024/01/07 00:42:35;;;;;;;22.88;13.50;;;3.80;99.90;;;;;;5014199;28;20050;-54
2024/01/07 00:45:03;;;;;;;19.50;13.02;;;3.80;99.90;;;;;;5013152;28;20410;-51
2024/01/07 00:47:30;;;;;;;21.95;12.93;;;3.80;99.90;;;;;;5011021;28;20050;-52
2024/01/07 00:49:57;;;;;;;21.48;13.25;;;3.80;99.90;;;;;;5017002;28;20050;-55
2024/01/07 00:52:24;;;;;;;23.73;13.82;;;3.80;99.90;;;;;;5010142;28;20074;-48
2024/01/07 00:54:51;;;;;;;23.10;13.75;;;3.80;99.90;;;;;;5017911;28;20663;-52
2024/01/07 00:57:18;;;;;;;20.88;12.70;;;3.70;99.90;;;;;;5008335;28;20054;-52
2024/01/07 00:59:45;;;;;;;24.42;13.43;;;3.80;99.90;;;;;;5014326;28;20048;-55
2024/01/07 01:02:12;;;;;;;24.08;13.65;;;3.80;99.90;;;;;;5014393;28;20119;-51
2024/01/07 01:04:40;;;;;;;21.85;13.13;;;3.80;99.90;;;;;;5011548;28;20069;-52
2024/01/07 01:07:07;;;;;;;23.40;13.50;;;3.70;99.90;;;;;;5013865;28;20065;-52
2024/01/07 01:09:35;;;;;;;21.08;13.95;;;3.70;99.90;;;;;;5015936;28;20041;-48
2024/01/07 01:12:02;;;;;;;26.00;14.35;;;3.70;99.90;;;;;;5011906;28;20050;-51
2024/01/07 01:14:29;;;;;;;22.25;13.48;;;3.70;99.90;;;;;;5014556;28;20037;-53
2024/01/07 01:16:55;;;;;;;21.80;14.18;;;3.70;99.90;;;;;;5013982;28;20055;-49
2024/01/07 01:19:24;;;;;;;25.48;14.07;;;3.60;99.90;;;;;;5007003;28;20075;-49
2024/01/07 01:21:51;;;;;;;24.45;14.20;;;3.60;99.90;;;;;;5008439;28;20038;-49
2024/01/07 01:24:18;;;;;;;25.52;12.98;;;3.70;99.90;;;;;;5010229;28;20056;-48
2024/01/07 01:26:45;;;;;;;21.40;13.55;;;3.60;99.90;;;;;;5009823;28;20041;-50
2024/01/07 01:29:12;;;;;;;22.63;13.18;;;3.70;99.90;;;;;;5013121;28;20057;-48
2024/01/07 01:31:39;;;;;;;25.90;13.40;;;3.70;99.90;;;;;;5008979;28;20147;-50
2024/01/07 01:34:06;;;;;;;21.73;14.15;;;3.70;99.90;;;;;;5008547;28;20042;-52
2024/01/07 01:36:33;;;;;;;20.38;12.65;;;3.70;99.90;;;;;;5008864;28;20041;-53
2024/01/07 01:39:00;;;;;;;21.67;13.82;;;3.70;99.90;;;;;;5010102;28;20116;-50
2024/01/07 01:41:28;;;;;;;23.10;13.48;;;3.70;99.90;;;;;;5008519;28;20125;-48
2024/01/07 01:43:59;;;;;;;21.45;12.45;;;3.70;99.90;;;;;;5007929;28;20129;-50
2024/01/07 01:46:28;;;;;;;22.70;13.18;;;3.70;99.90;;;;;;5007139;28;20495;-52
2024/01/07 01:48:56;;;;;;;26.83;13.50;;;3.70;99.90;;;;;;5008396;28;20065;-52
2024/01/07 01:51:24;;;;;;;20.63;13.10;;;3.70;99.90;;;;;;5009951;28;20444;-53
2024/01/07 01:53:51;;;;;;;22.48;13.43;;;3.80;99.90;;;;;;5007878;28;20065;-51
2024/01/07 01:56:20;;;;;;;22.45;13.15;;;3.80;99.90;;;;;;5007971;28;20050;-52
2024/01/07 01:58:47;;;;;;;21.88;12.73;;;3.80;99.90;;;;;;5009638;28;20079;-49
2024/01/07 02:01:15;;;;;;;21.73;13.20;;;3.80;99.90;;;;;;5007022;28;20046;-53
2024/01/07 02:03:41;;;;;;;23.05;13.77;;;3.80;99.90;;;;;;5005932;28;20107;-49
2024/01/07 02:06:11;;;;;;;21.33;13.27;;;3.80;99.90;;;;;;5008334;28;20042;-56
2024/01/07 02:08:39;;;;;;;21.60;12.82;;;3.80;99.90;;;;;;5038447;28;20414;-55
2024/01/07 02:11:20;;;;;;;20.95;12.93;;;3.80;99.90;;;;;;5002724;28;20104;-51
2024/01/07 02:13:47;;;;;;;21.15;12.20;;;3.80;99.90;;;;;;5005850;28;20111;-54
2024/01/07 02:16:14;;;;;;;22.90;12.95;;;3.80;99.90;;;;;;5006877;28;20153;-51
2024/01/07 02:18:42;;;;;;;20.73;13.35;;;3.80;99.90;;;;;;5007306;28;20050;-50
2024/01/07 02:21:10;;;;;;;23.02;12.90;;;3.90;99.90;;;;;;5004971;28;20427;-54
2024/01/07 02:23:37;;;;;;;21.30;13.35;;;3.90;99.90;;;;;;5013134;28;20138;-53
2024/01/07 02:26:04;;;;;;;21.08;12.77;;;3.90;99.90;;;;;;5009830;28;20168;-53
2024/01/07 02:28:33;;;;;;;20.20;12.85;;;3.90;99.90;;;;;;5012145;28;20050;-48
2024/01/07 02:31:00;;;;;;;25.05;12.77;;;3.90;99.90;;;;;;5007244;28;20806;-53
2024/01/07 02:33:28;;;;;;;24.90;13.43;;;3.90;99.90;;;;;;5010776;28;20096;-51
2024/01/07 02:35:55;;;;;;;22.90;12.50;;;4.00;99.90;;;;;;5006854;28;20049;-53
2024/01/07 02:38:23;;;;;;;18.52;11.68;;;4.00;99.90;;;;;;5010407;28;20042;-52
2024/01/07 02:40:50;;;;;;;23.55;12.25;;;4.00;99.90;;;;;;5006944;28;20041;-49
2024/01/07 02:43:17;;;;;;;18.75;12.05;;;4.00;99.90;;;;;;5010959;28;20847;-56
2024/01/07 02:45:44;;;;;;;17.30;10.75;;;4.10;99.90;;;;;;5007246;28;20129;-52
2024/01/07 02:48:11;;;;;;;16.38;10.15;;;4.00;99.90;;;;;;5011081;28;20073;-53
2024/01/07 02:50:38;;;;;;;16.92;9.82;;;4.00;99.90;;;;;;5008622;28;20060;-51
2024/01/07 02:53:04;;;;;;;17.88;9.82;;;4.00;99.90;;;;;;5007367;28;20065;-52
2024/01/07 02:55:31;;;;;;;15.45;9.23;;;4.00;99.90;;;;;;5010892;28;20545;-51
2024/01/07 02:57:58;;;;;;;16.05;9.65;;;4.00;99.90;;;;;;5006109;28;20471;-54
2024/01/07 03:00:25;;;;;;;15.27;9.27;;;3.90;99.90;;;;;;5007489;28;20503;-51
2024/01/07 03:02:53;;;;;;;16.42;9.90;;;3.90;99.90;;;;;;5005204;28;20129;-50
2024/01/07 03:05:20;;;;;;;15.75;9.02;;;3.90;99.90;;;;;;5007196;28;20056;-52
2024/01/07 03:07:47;;;;;;;17.60;9.82;;;3.90;99.90;;;;;;5010842;28;20071;-50
2024/01/07 03:10:14;;;;;;;16.33;9.43;;;3.90;99.90;;;;;;5007219;28;20141;-50
2024/01/07 03:12:41;;;;;;;16.73;8.80;;;3.90;99.90;;;;;;5006607;28;20054;-49
2024/01/07 03:15:08;;;;;;;14.43;9.32;;;3.80;99.90;;;;;;5006735;28;20030;-49
2024/01/07 03:17:36;;;;;;;13.88;8.32;;;3.80;99.90;;;;;;5006823;28;20064;-49
2024/01/07 03:20:03;;;;;;;15.15;9.10;;;3.80;99.90;;;;;;5006851;28;20537;-49
2024/01/07 03:22:30;;;;;;;17.00;10.10;;;3.80;99.90;;;;;;5012294;28;20075;-52
2024/01/07 03:24:57;;;;;;;14.88;8.90;;;3.80;99.90;;;;;;5011575;28;20058;-49
2024/01/07 03:27:24;;;;;;;13.88;7.90;;;3.80;99.90;;;;;;5006843;28;20045;-52
2024/01/07 03:29:51;;;;;;;14.18;8.52;;;3.70;99.90;;;;;;5005403;28;20053;-51
2024/01/07 03:32:18;;;;;;;14.82;8.23;;;3.70;99.90;;;;;;5004769;28;20115;-49
2024/01/07 03:34:45;;;;;;;15.95;9.07;;;3.80;99.90;;;;;;5004159;28;20037;-50
2024/01/07 03:37:12;;;;;;;16.33;9.13;;;3.70;99.90;;;;;;5005076;28;20053;-51
2024/01/07 03:39:39;;;;;;;13.95;8.73;;;3.70;99.90;;;;;;5004613;28;20125;-51
2024/01/07 03:42:11;;;;;;;14.48;8.65;;;3.70;99.90;;;;;;5003792;28;20038;-52
2024/01/07 03:44:38;;;;;;;;;;;3.70;99.90;;;;;;5005689;28;20180;-50
2024/01/07 03:47:06;;;;;;;13.85;8.85;;;3.70;99.90;;;;;;5003838;28;19968;-53
2024/01/07 03:49:33;;;;;;;14.90;8.82;;;3.70;99.90;;;;;;5006639;28;20107;-53
2024/01/07 03:52:00;;;;;;;15.55;8.82;;;3.70;99.90;;;;;;5004925;28;20038;-53
2024/01/07 03:54:27;;;;;;;15.15;9.02;;;3.70;99.90;;;;;;5001812;28;20056;-55
2024/01/07 03:56:54;;;;;;;16.60;9.20;;;3.70;99.90;;;;;;5004949;28;20069;-51
2024/01/07 03:59:23;;;;;;;16.70;9.63;;;3.70;99.90;;;;;;5004667;28;20569;-52
2024/01/07 04:01:50;;;;;;;17.55;8.68;;;3.60;99.90;;;;;;5004834;28;20046;-52
2024/01/07 04:04:17;;;;;;;19.10;10.02;;;3.60;99.90;;;;;;5005757;28;20044;-51
2024/01/07 04:06:44;;;;;;;16.75;9.68;;;3.60;99.90;;;;;;5002828;28;20132;-56
2024/01/07 04:09:11;;;;;;;17.55;9.70;;;3.60;99.90;;;;;;5006235;28;20466;-57
2024/01/07 04:11:42;;;;;;;15.93;8.77;;;3.60;99.90;;;;;;5003443;28;20052;-50
2024/01/07 04:14:09;;;;;;;16.23;9.02;;;3.60;99.90;;;;;;5003599;28;20603;-53
2024/01/07 04:16:36;;;;;;;15.13;8.68;;;3.60;99.90;;;;;;5003449;28;20060;-51
2024/01/07 04:19:03;;;;;;;16.38;9.15;;;3.50;99.90;;;;;;5004245;28;20042;-51
2024/01/07 04:21:30;;;;;;;14.10;8.15;;;3.50;99.90;;;;;;5003786;28;20452;-49
2024/01/07 04:23:57;;;;;;;15.52;8.95;;;3.50;99.90;;;;;;5009725;28;20112;-54
2024/01/07 04:26:24;;;;;;;15.95;8.68;;;3.40;99.90;;;;;;5005156;28;20057;-53
2024/01/07 04:28:51;;;;;;;15.00;8.50;;;3.40;99.90;;;;;;5004548;28;20553;-51
2024/01/07 04:31:18;;;;;;;14.68;8.32;;;3.40;99.90;;;;;;5004357;28;20549;-49
2024/01/07 04:33:45;;;;;;;14.32;8.68;;;3.40;99.90;;;;;;5003362;28;20038;-50
2024/01/07 04:36:12;;;;;;;15.77;8.98;;;3.40;99.90;;;;;;5006551;28;20081;-53
2024/01/07 04:38:39;;;;;;;14.55;8.18;;;3.40;99.90;;;;;;5004736;28;20130;-49
2024/01/07 04:41:07;;;;;;;13.98;7.90;;;3.40;99.90;;;;;;5005650;28;20048;-53
2024/01/07 04:43:35;;;;;;;16.27;8.65;;;3.30;99.90;;;;;;5006302;28;20041;-48
2024/01/07 04:46:02;;;;;;;13.00;8.05;;;3.20;99.90;;;;;;5002891;28;20077;-49
2024/01/07 04:48:29;;;;;;;13.30;8.13;;;3.20;99.90;;;;;;5009041;28;20092;-55
2024/01/07 04:50:57;;;;;;;14.35;8.57;;;3.20;99.90;;;;;;5008694;28;20596;-49
2024/01/07 04:53:24;;;;;;;14.50;8.30;;;3.20;99.90;;;;;;5009534;28;20046;-51
2024/01/07 04:55:50;;;;;;;14.32;8.45;;;3.20;99.90;;;;;;5010797;28;20179;-51
2024/01/07 04:58:17;;;;;;;14.13;7.93;;;3.30;99.90;;;;;;5008325;28;20100;-49
2024/01/07 05:00:44;;;;;;;14.90;7.88;;;3.20;99.90;;;;;;5008841;28;20042;-50
2024/01/07 05:03:11;;;;;;;11.85;7.50;;;3.20;99.90;;;;;;5010774;28;20105;-49
2024/01/07 05:05:38;;;;;;;13.13;7.57;;;3.20;99.90;;;;;;5010906;28;20045;-54
2024/01/07 05:08:06;;;;;;;10.93;6.75;;;3.20;99.90;;;;;;5012372;28;20054;-51
2024/01/07 05:10:33;;;;;;;14.25;7.88;;;3.20;99.90;;;;;;5010300;28;20050;-50
2024/01/07 05:13:04;;;;;;;11.70;6.82;;;3.20;99.90;;;;;;5007075;28;20049;-53
2024/01/07 05:15:32;;;;;;;11.73;6.80;;;3.20;99.90;;;;;;5006739;28;20363;-54
2024/01/07 05:17:59;;;;;;;13.27;7.55;;;3.10;99.90;;;;;;5007805;28;20442;-55
2024/01/07 05:20:26;;;;;;;11.48;6.93;;;3.10;99.90;;;;;;5009011;28;20058;-52
2024/01/07 05:22:53;;;;;;;12.10;6.57;;;3.10;99.90;;;;;;5007525;28;20042;-50
2024/01/07 05:25:20;;;;;;;12.32;6.90;;;3.10;99.90;;;;;;5008968;28;20517;-51
2024/01/07 05:27:47;;;;;;;11.68;6.88;;;3.00;99.90;;;;;;5007834;28;20042;-53
2024/01/07 05:30:14;;;;;;;12.80;7.10;;;3.00;99.90;;;;;;5013814;28;20054;-49
2024/01/07 05:32:41;;;;;;;12.13;6.85;;;2.90;99.90;;;;;;5006884;28;20279;-51
2024/01/07 05:35:09;;;;;;;12.25;6.97;;;2.90;99.90;;;;;;5008819;28;20141;-51
2024/01/07 05:37:36;;;;;;;10.68;6.25;;;2.90;99.90;;;;;;5006650;28;20064;-52
2024/01/07 05:40:03;;;;;;;13.00;6.53;;;2.90;99.90;;;;;;5008606;28;20083;-50
2024/01/07 05:42:30;;;;;;;11.57;7.20;;;2.90;99.90;;;;;;5007457;28;20136;-50
2024/01/07 05:44:57;;;;;;;11.70;6.50;;;2.80;99.90;;;;;;5007757;28;20137;-50
2024/01/07 05:47:24;;;;;;;13.95;7.55;;;2.90;99.90;;;;;;5008592;28;20081;-52
2024/01/07 05:49:51;;;;;;;12.75;7.25;;;2.80;99.90;;;;;;5006593;28;20499;-52
2024/01/07 05:52:19;;;;;;;12.45;6.95;;;2.80;99.90;;;;;;5008277;28;20081;-53
2024/01/07 05:54:46;;;;;;;12.40;7.43;;;2.80;99.90;;;;;;5006249;28;20434;-52
2024/01/07 05:57:13;;;;;;;13.45;7.00;;;2.80;99.90;;;;;;5004400;28;20476;-49
2024/01/07 05:59:40;;;;;;;12.07;7.05;;;2.80;99.90;;;;;;5005960;28;20072;-50
2024/01/07 06:02:06;;;;;;;13.25;7.65;;;2.80;99.90;;;;;;5006958;28;20046;-53
2024/01/07 06:04:33;;;;;;;12.82;6.45;;;2.70;99.90;;;;;;5007782;28;20458;-51
2024/01/07 06:07:00;;;;;;;10.57;6.70;;;2.70;99.90;;;;;;5005947;28;20049;-52
2024/01/07 06:09:28;;;;;;;12.15;7.07;;;2.70;99.90;;;;;;5007974;28;20455;-54
2024/01/07 06:11:55;;;;;;;12.32;7.05;;;2.70;99.90;;;;;;5007860;28;20108;-55
2024/01/07 06:14:25;;;;;;;11.20;6.68;;;2.70;99.90;;;;;;5007597;28;20092;-52
2024/01/07 06:16:52;;;;;;;14.27;7.35;;;2.70;99.90;;;;;;5011112;28;20053;-56
2024/01/07 06:19:20;;;;;;;12.57;7.40;;;2.70;99.90;;;;;;5007193;28;20049;-56
2024/01/07 06:21:47;;;;;;;13.57;7.60;;;2.70;99.90;;;;;;5004366;28;20120;-50
2024/01/07 06:24:14;;;;;;;13.23;7.68;;;2.60;99.90;;;;;;5007189;28;20159;-54
2024/01/07 06:26:41;;;;;;;13.00;7.72;;;2.60;99.90;;;;;;5006277;28;20473;-52
2024/01/07 06:29:09;;;;;;;14.70;8.38;;;2.70;99.90;;;;;;5012595;28;20419;-52
2024/01/07 06:31:42;;;;;;;15.68;8.10;;;2.60;99.90;;;;;;5006256;28;20053;-47
2024/01/07 06:34:13;;;;;;;14.85;8.45;;;2.60;99.90;;;;;;5007372;28;20380;-49
2024/01/07 06:36:43;;;;;;;15.00;8.50;;;2.60;99.90;;;;;;5007716;28;20038;-49
2024/01/07 06:39:10;;;;;;;15.20;8.30;;;2.50;99.90;;;;;;5006055;28;20044;-51
2024/01/07 06:41:37;;;;;;;16.45;9.05;;;2.50;99.90;;;;;;5005954;28;20096;-53
2024/01/07 06:44:04;;;;;;;13.88;8.73;;;2.60;99.90;;;;;;5007603;28;20128;-52
2024/01/07 06:46:31;;;;;;;16.38;8.93;;;2.60;99.90;;;;;;5002579;28;20042;-51
2024/01/07 06:48:58;;;;;;;16.23;8.93;;;2.60;99.90;;;;;;5005971;28;20511;-53
2024/01/07 06:51:25;;;;;;;15.68;9.18;;;2.60;99.90;;;;;;5005381;28;20128;-50
2024/01/07 06:53:52;;;;;;;15.88;8.98;;;2.60;99.90;;;;;;5006993;28;20059;-51
2024/01/07 06:56:19;;;;;;;16.00;8.90;;;2.60;99.90;;;;;;5007604;28;20136;-51
2024/01/07 06:58:46;;;;;;;16.73;8.50;;;2.50;99.90;;;;;;4997943;28;20265;-52
2024/01/07 07:01:17;;;;;;;15.98;8.77;;;2.50;99.90;;;;;;5005798;28;20042;-48
2024/01/07 07:03:44;;;;;;;19.17;10.03;;;2.50;99.90;;;;;;5003620;28;20042;-48
2024/01/07 07:06:12;;;;;;;16.55;9.10;;;2.50;99.90;;;;;;5006425;28;20099;-50
2024/01/07 07:08:39;;;;;;;18.42;9.48;;;2.40;99.90;;;;;;5006656;28;20099;-52
2024/01/07 07:11:06;;;;;;;16.67;8.75;;;2.40;99.90;;;;;;5008550;28;20069;-51
2024/01/07 07:13:33;;;;;;;16.38;9.35;;;2.30;99.90;;;;;;5005758;28;20497;-49
2024/01/07 07:16:00;;;;;;;18.67;9.68;;;2.30;99.90;;;;;;5006803;28;20107;-55
2024/01/07 07:18:27;;;;;;;17.85;10.05;;;2.30;99.90;;;;;;5009194;28;20525;-50
2024/01/07 07:20:55;;;;;;;17.48;9.73;;;2.30;99.90;;;;;;5006812;28;20050;-50
2024/01/07 07:23:22;;;;;;;20.67;10.40;;;2.30;99.90;;;;;;5007352;28;20494;-50
2024/01/07 07:25:49;;;;;;;16.98;9.98;;;2.30;99.90;;;;;;5006050;28;20566;-52
2024/01/07 07:28:17;;;;;;;19.83;9.93;;;2.30;99.90;;;;;;5010439;28;20088;-53
2024/01/07 07:30:44;;;;;;;18.17;9.85;;;2.30;99.90;;;;;;5008018;28;20125;-52
2024/01/07 07:33:14;;;;;;;18.48;10.25;;;2.30;99.90;;;;;;5011854;28;20485;-49
2024/01/07 07:35:42;;;;;;;19.45;10.38;;;2.30;99.90;;;;;;5005161;28;20153;-52
2024/01/07 07:38:08;;;;;;;17.27;10.15;;;2.30;99.90;;;;;;5006306;28;20033;-49
2024/01/07 07:40:35;;;;;;;16.17;9.93;;;2.30;99.90;;;;;;5007040;28;20123;-54
2024/01/07 07:43:02;;;;;;;17.08;10.48;;;2.30;99.90;;;;;;5003455;28;20506;-55
2024/01/07 07:45:29;;;;;;;18.48;10.85;;;2.30;99.90;;;;;;5006786;28;20589;-50
2024/01/07 07:47:56;;;;;;;16.85;10.32;;;2.30;99.90;;;;;;5006112;28;20065;-49
2024/01/07 07:50:23;;;;;;;20.42;11.60;;;2.30;99.90;;;;;;5006281;28;20168;-50
2024/01/07 07:52:50;;;;;;;20.20;11.13;;;2.30;99.90;;;;;;5005899;28;20052;-51
2024/01/07 07:55:17;;;;;;;19.38;11.93;;;2.30;99.90;;;;;;5007035;28;20042;-52
2024/01/07 07:57:46;;;;;;;18.27;10.60;;;2.30;99.90;;;;;;5005578;28;20224;-54
2024/01/07 08:00:13;;;;;;;18.58;11.18;;;2.20;99.90;;;;;;5012651;28;20382;-48
2024/01/07 08:02:40;;;;;;;20.52;12.05;;;2.20;99.90;;;;;;5007225;28;20057;-50
2024/01/07 08:05:08;;;;;;;23.15;11.40;;;2.20;99.90;;;;;;5005733;28;20045;-50
2024/01/07 08:07:35;;;;;;;19.58;11.50;;;2.20;99.90;;;;;;5010397;28;20471;-48
2024/01/07 08:10:02;;;;;;;21.08;10.93;;;2.30;99.90;;;;;;5006605;28;20045;-51
2024/01/07 08:12:29;;;;;;;23.10;12.85;;;2.30;99.90;;;;;;5005708;28;20038;-52
2024/01/07 08:14:56;;;;;;;18.23;10.70;;;2.20;99.90;;;;;;5005784;28;20582;-49
2024/01/07 08:17:23;;;;;;;19.13;11.73;;;2.30;99.90;;;;;;5009387;28;20080;-52
2024/01/07 08:19:53;;;;;;;18.17;10.75;;;2.30;99.90;;;;;;5011054;28;20037;-54
2024/01/07 08:22:20;;;;;;;17.30;10.23;;;2.30;99.90;;;;;;5010474;28;20088;-52
2024/01/07 08:24:47;;;;;;;18.90;11.15;;;2.30;99.90;;;;;;5013068;28;20061;-49
2024/01/07 08:27:14;;;;;;;18.00;10.77;;;2.30;99.90;;;;;;5014792;28;20103;-49
2024/01/07 08:29:44;;;;;;;21.38;12.15;;;2.30;99.90;;;;;;5009648;28;20190;-49
2024/01/07 08:32:12;;;;;;;19.45;11.38;;;2.30;99.90;;;;;;5007965;28;20045;-50
2024/01/07 08:34:42;;;;;;;18.40;10.55;;;2.30;99.90;;;;;;5009026;28;20053;-53
2024/01/07 08:37:09;;;;;;;18.75;11.88;;;2.30;99.90;;;;;;5014295;28;20049;-51
2024/01/07 08:39:37;;;;;;;20.65;11.55;;;2.20;99.90;;;;;;5011526;28;20042;-48
2024/01/07 08:42:04;;;;;;;18.15;10.55;;;2.20;99.90;;;;;;5010316;28;20631;-53
2024/01/07 08:44:31;;;;;;;19.73;11.48;;;2.20;99.90;;;;;;5010236;28;20181;-49
2024/01/07 08:47:00;;;;;;;19.67;11.82;;;2.20;99.90;;;;;;5013058;28;20064;-54
2024/01/07 08:49:28;;;;;;;19.67;11.02;;;2.30;99.90;;;;;;5009791;28;20092;-54
2024/01/07 08:51:56;;;;;;;19.25;11.32;;;2.20;99.90;;;;;;5009539;28;20053;-55
2024/01/07 08:54:23;;;;;;;21.63;13.00;;;2.30;99.90;;;;;;5010016;28;20065;-54
2024/01/07 08:56:51;;;;;;;21.08;12.15;;;2.20;99.90;;;;;;5015232;28;20042;-50
2024/01/07 08:59:17;;;;;;;21.13;12.20;;;2.10;99.90;;;;;;5014073;28;20796;-50
2024/01/07 09:01:44;;;;;;;20.05;11.27;;;2.10;99.90;;;;;;5011448;28;20144;-54
2024/01/07 09:04:11;;;;;;;21.48;11.50;;;2.10;99.90;;;;;;5036837;28;20064;-47
2024/01/07 09:06:38;;;;;;;18.48;10.32;;;2.10;99.90;;;;;;5009745;28;20049;-51
2024/01/07 09:09:06;;;;;;;18.60;11.48;;;2.10;99.90;;;;;;5009982;28;20397;-52
2024/01/07 09:11:33;;;;;;;21.85;11.88;;;2.10;99.90;;;;;;5008766;28;20110;-50
2024/01/07 09:14:00;;;;;;;21.52;12.43;;;2.00;99.90;;;;;;5008950;28;20442;-50
2024/01/07 09:16:27;;;;;;;20.55;11.90;;;2.00;99.90;;;;;;5015576;28;20054;-51
2024/01/07 09:18:54;;;;;;;19.00;11.18;;;1.90;99.90;;;;;;5009875;28;20049;-53
2024/01/07 09:21:23;;;;;;;21.95;12.30;;;1.90;99.90;;;;;;5008122;28;20041;-52
2024/01/07 09:23:49;;;;;;;19.77;11.93;;;1.80;99.90;;;;;;5009815;28;20129;-54
2024/01/07 09:26:16;;;;;;;19.13;11.77;;;1.80;99.90;;;;;;5006502;28;20045;-53
2024/01/07 09:28:44;;;;;;;21.17;12.10;;;1.80;99.90;;;;;;5013418;28;20049;-52
2024/01/07 09:31:11;;;;;;;22.27;12.43;;;1.70;99.90;;;;;;5008584;28;20064;-47
2024/01/07 09:33:38;;;;;;;20.70;12.35;;;1.70;99.90;;;;;;5008698;28;20281;-54
2024/01/07 09:36:07;;;;;;;20.50;11.82;;;1.60;99.90;;;;;;5005667;28;20138;-52
2024/01/07 09:38:53;;;;;;;24.73;14.02;;;1.60;99.90;;;;;;5005220;28;20403;-49
2024/01/07 09:41:20;;;;;;;20.58;12.00;;;1.60;99.90;;;;;;5012625;28;20497;-50
2024/01/07 09:43:47;;;;;;;22.27;12.02;;;1.60;99.90;;;;;;5006797;28;20125;-54
2024/01/07 09:46:14;;;;;;;22.95;12.80;;;1.60;99.90;;;;;;5012740;28;20053;-49
2024/01/07 09:48:42;;;;;;;23.85;13.10;;;1.60;99.90;;;;;;5008625;28;20123;-47
2024/01/07 09:51:11;;;;;;;21.85;12.95;;;1.60;99.90;;;;;;5008308;28;20073;-47
2024/01/07 09:53:40;;;;;;;21.48;11.93;;;1.60;99.90;;;;;;5008806;28;20124;-54
2024/01/07 09:56:31;;;;;;;24.70;13.10;;;1.60;99.90;;;;;;5008594;28;20042;-49
2024/01/07 09:58:58;;;;;;;22.17;11.82;;;1.60;99.90;;;;;;5012049;28;20554;-53
2024/01/07 10:01:25;;;;;;;23.55;12.82;;;1.70;99.90;;;;;;5007796;28;20564;-48
2024/01/07 10:03:53;;;;;;;24.38;14.35;;;1.70;99.90;;;;;;5007760;28;20052;-50
2024/01/07 10:06:20;;;;;;;24.42;13.75;;;1.70;99.90;;;;;;5005505;28;20506;-53
2024/01/07 10:08:47;;;;;;;24.15;12.75;;;1.80;99.90;;;;;;5009052;28;20213;-52
2024/01/07 10:11:15;;;;;;;24.15;12.57;;;1.70;99.90;;;;;;5008326;28;20515;-52
2024/01/07 10:13:47;;;;;;;23.52;12.95;;;1.50;99.90;;;;;;5005497;28;20403;-51
2024/01/07 10:16:14;;;;;;;25.27;13.35;;;1.50;99.90;;;;;;5006687;28;20633;-53
2024/01/07 10:18:42;;;;;;;25.25;14.15;;;1.50;99.90;;;;;;5005017;28;20299;-51
2024/01/07 10:21:09;;;;;;;24.48;12.88;;;1.60;99.90;;;;;;5007417;28;20137;-49
2024/01/07 10:23:36;;;;;;;24.08;14.02;;;1.60;99.90;;;;;;5009533;28;20049;-51
2024/01/07 10:26:04;;;;;;;23.08;13.48;;;1.70;99.90;;;;;;5008509;28;20041;-52
2024/01/07 10:28:45;;;;;;;26.80;14.02;;;1.70;99.90;;;;;;5007822;28;20046;-50
2024/01/07 10:31:13;;;;;;;28.75;14.88;;;1.60;99.90;;;;;;5007419;28;20445;-54
2024/01/07 10:33:41;;;;;;;25.30;14.35;;;1.70;99.90;;;;;;5039246;28;20073;-51
2024/01/07 10:36:10;;;;;;;27.40;14.50;;;1.70;99.90;;;;;;5003642;28;20431;-53
2024/01/07 10:38:37;;;;;;;21.55;12.60;;;1.60;99.90;;;;;;5006041;28;20498;-49
2024/01/07 10:41:09;;;;;;;24.80;13.45;;;1.60;99.90;;;;;;5007207;28;20038;-51
2024/01/07 10:43:38;;;;;;;25.63;14.60;;;1.60;99.90;;;;;;5003135;28;20035;-51
2024/01/07 10:46:09;;;;;;;25.90;13.77;;;1.60;99.90;;;;;;5007816;28;20115;-49
2024/01/07 10:48:38;;;;;;;25.80;14.25;;;1.60;99.90;;;;;;5002923;28;20046;-48
2024/01/07 10:51:06;;;;;;;23.63;13.75;;;1.60;99.90;;;;;;5003671;28;20091;-48
2024/01/07 10:53:37;;;;;;;26.15;14.85;;;1.50;99.90;;;;;;5002484;28;20371;-51
2024/01/07 10:56:06;;;;;;;24.80;13.63;;;1.50;99.90;;;;;;5008838;28;20042;-48
2024/01/07 10:58:35;;;;;;;28.08;13.65;;;1.50;99.90;;;;;;5004365;28;20053;-51
2024/01/07 11:01:06;;;;;;;26.95;14.68;;;1.60;99.90;;;;;;5007620;28;20160;-53
2024/01/07 11:03:43;;;;;;;27.80;14.52;;;1.60;99.90;;;;;;5005323;28;20280;-52
2024/01/07 11:06:27;;;;;;;26.70;13.85;;;1.60;99.90;;;;;;5004798;28;20050;-52
2024/01/07 11:09:03;;;;;;;27.20;14.13;;;1.60;99.90;;;;;;4999049;28;20034;-48
2024/01/07 11:11:42;;;;;;;26.77;14.45;;;1.60;99.90;;;;;;5006849;28;20131;-49
2024/01/07 11:14:44;;;;;;;26.35;12.98;;;1.50;99.90;;;;;;5005159;28;20102;-51
2024/01/07 11:17:13;;;;;;;21.90;12.02;;;1.40;99.90;;;;;;5007501;28;20302;-50
2024/01/07 11:19:53;;;;;;;22.23;13.07;;;1.40;99.90;;;;;;5006615;28;20050;-52
2024/01/07 11:22:29;;;;;;;25.65;13.32;;;1.30;99.90;;;;;;5006722;28;20042;-48
2024/01/07 11:24:57;;;;;;;25.33;12.75;;;1.30;99.90;;;;;;5006550;28;20053;-51
2024/01/07 11:27:32;;;;;;;26.05;14.00;;;1.40;99.90;;;;;;5005684;28;20144;-53
2024/01/07 11:30:05;;;;;;;24.80;13.48;;;1.40;99.90;;;;;;5005347;28;20558;-49
2024/01/07 11:32:35;;;;;;;25.35;14.40;;;1.30;99.90;;;;;;5006502;28;20042;-52
2024/01/07 11:35:02;;;;;;;24.17;13.98;;;1.30;99.90;;;;;;5008282;28;20045;-50
2024/01/07 11:37:30;;;;;;;23.88;13.70;;;1.40;99.90;;;;;;5003771;28;20057;-50
2024/01/07 11:39:58;;;;;;;25.33;13.25;;;1.50;99.90;;;;;;5003010;28;20511;-53
2024/01/07 11:42:25;;;;;;;25.85;13.50;;;1.50;99.90;;;;;;5005168;28;20118;-49
2024/01/07 11:44:55;;;;;;;20.45;11.85;;;1.50;99.90;;;;;;5005888;28;20088;-51
2024/01/07 11:47:23;;;;;;;22.38;12.30;;;1.40;99.90;;;;;;5006922;28;20049;-48
2024/01/07 11:49:51;;;;;;;27.05;13.73;;;1.40;99.90;;;;;;5004727;28;20084;-49
2024/01/07 11:52:19;;;;;;;21.33;12.73;;;1.30;99.90;;;;;;5000607;28;20454;-49
2024/01/07 11:54:47;;;;;;;23.10;12.70;;;1.30;99.90;;;;;;5004389;28;20042;-52
2024/01/07 11:57:14;;;;;;;21.88;12.18;;;1.30;99.90;;;;;;5005509;28;20046;-52
2024/01/07 11:59:41;;;;;;;22.60;11.70;;;1.30;99.90;;;;;;5007573;28;20165;-52
2024/01/07 12:02:11;;;;;;;21.40;11.55;;;1.40;99.90;;;;;;5004814;28;20073;-55
2024/01/07 12:04:38;;;;;;;20.33;10.93;;;1.30;99.90;;;;;;5001065;28;20214;-53
2024/01/07 12:07:05;;;;;;;21.75;11.77;;;1.40;99.90;;;;;;5003664;28;20046;-50
2024/01/07 12:09:32;;;;;;;21.33;11.52;;;1.40;99.90;;;;;;5004607;28;20128;-51
2024/01/07 12:12:00;;;;;;;18.33;10.02;;;1.40;99.90;;;;;;5005418;28;20081;-49
2024/01/07 12:14:28;;;;;;;22.52;12.23;;;1.40;99.90;;;;;;5004912;28;20038;-51
2024/01/07 12:16:55;;;;;;;20.42;11.00;;;1.30;99.90;;;;;;5006303;28;20042;-52
2024/01/07 12:19:23;;;;;;;17.73;10.15;;;1.30;99.90;;;;;;5002066;28;20134;-51
2024/01/07 12:22:02;;;;;;;20.30;10.85;;;1.40;99.90;;;;;;5006616;28;20496;-55
2024/01/07 12:24:30;;;;;;;22.85;11.63;;;1.40;99.90;;;;;;5004256;28;20045;-50
2024/01/07 12:27:04;;;;;;;21.23;11.15;;;1.30;99.90;;;;;;5006893;28;20081;-50
2024/01/07 12:29:31;;;;;;;20.67;10.38;;;1.30;99.90;;;;;;5002913;28;20076;-54
2024/01/07 12:31:59;;;;;;;19.52;11.23;;;1.30;99.90;;;;;;5006425;28;20057;-51
2024/01/07 12:34:26;;;;;;;19.63;10.77;;;1.30;99.90;;;;;;5005363;28;20045;-49
2024/01/07 12:36:55;;;;;;;19.30;10.70;;;1.30;99.90;;;;;;5011012;28;20122;-48
2024/01/07 12:39:22;;;;;;;22.25;10.98;;;1.30;99.90;;;;;;5005296;28;20400;-55
2024/01/07 12:41:53;;;;;;;;;;;1.30;99.90;;;;;;5003748;28;20042;-50
2024/01/07 12:44:20;;;;;;;21.65;11.32;;;1.30;99.90;;;;;;5004880;28;20025;-51